createdAt,value
2017-12-21T00:01:06.532Z,14.20
2017-12-21T00:03:33.993Z,15.20
2017-12-21T00:06:01.499Z,14.23
2017-12-21T00:08:29.148Z,14.13
2017-12-21T00:10:56.654Z,14.20
2017-12-21T00:13:24.160Z,13.10
2017-12-21T00:15:51.620Z,13.50
2017-12-21T00:18:19.144Z,14.70
2017-12-21T00:20:46.703Z,15.23
2017-12-21T00:23:14.188Z,14.50
2017-12-21T00:25:41.687Z,15.90
2017-12-21T00:28:09.156Z,14.40
2017-12-21T00:30:36.607Z,16.70
2017-12-21T00:33:04.219Z,16.30
2017-12-21T00:35:31.748Z,15.50
2017-12-21T00:37:59.212Z,16.27
2017-12-21T00:40:26.677Z,16.40
2017-12-21T00:42:54.171Z,17.27
2017-12-21T00:45:21.643Z,16.73
2017-12-21T00:47:49.176Z,16.60
2017-12-21T00:50:16.631Z,17.73
2017-12-21T00:52:44.090Z,16.40
2017-12-21T00:55:11.571Z,16.80
2017-12-21T00:57:39.017Z,17.80
2017-12-21T01:00:06.495Z,17.70
2017-12-21T01:02:34.186Z,16.07
2017-12-21T01:05:01.648Z,15.83
2017-12-21T01:07:29.097Z,15.70
2017-12-21T01:09:56.559Z,16.03
2017-12-21T01:12:24.682Z,15.10
2017-12-21T01:14:52.156Z,16.53
2017-12-21T01:17:19.617Z,14.30
2017-12-21T01:19:47.080Z,13.10
2017-12-21T01:22:14.644Z,13.50
2017-12-21T01:24:42.259Z,12.63
2017-12-21T01:27:09.715Z,12.00
2017-12-21T01:29:37.172Z,11.63
2017-12-21T01:32:04.669Z,11.10
2017-12-21T01:34:32.906Z,10.50
2017-12-21T01:37:00.398Z,10.63
2017-12-21T01:39:27.857Z,9.27
2017-12-21T01:41:55.313Z,9.30
2017-12-21T01:44:22.780Z,8.43
2017-12-21T01:46:50.275Z,8.00
2017-12-21T01:49:17.723Z,7.53
2017-12-21T01:51:45.265Z,8.30
2017-12-21T01:54:12.726Z,7.93
2017-12-21T01:56:40.197Z,8.10
2017-12-21T01:59:07.653Z,7.43
2017-12-21T02:01:35.112Z,7.30
2017-12-21T02:04:02.574Z,6.40
2017-12-21T02:06:30.021Z,5.87
2017-12-21T02:08:57.689Z,6.50
2017-12-21T02:11:25.151Z,6.57
2017-12-21T02:13:52.604Z,5.30
2017-12-21T02:16:20.072Z,4.97
2017-12-21T02:18:47.607Z,5.57
2017-12-21T02:21:15.896Z,4.93
2017-12-21T02:23:43.351Z,4.60
2017-12-21T02:26:10.879Z,5.83
2017-12-21T02:28:38.356Z,4.43
2017-12-21T02:31:05.840Z,4.50
2017-12-21T02:33:33.312Z,4.07
2017-12-21T02:36:00.838Z,4.50
2017-12-21T02:38:28.349Z,5.10
2017-12-21T02:40:55.844Z,4.40
2017-12-21T02:43:23.342Z,5.10
2017-12-21T02:45:50.798Z,5.00
2017-12-21T02:48:18.289Z,4.00
2017-12-21T02:50:45.767Z,5.30
2017-12-21T02:53:13.244Z,4.47
2017-12-21T02:55:40.736Z,5.70
2017-12-21T02:58:08.217Z,4.87
2017-12-21T03:00:35.690Z,5.77
2017-12-21T03:03:03.224Z,5.40
2017-12-21T03:05:30.671Z,5.73
2017-12-21T03:07:58.179Z,6.20
2017-12-21T03:10:25.641Z,6.47
2017-12-21T03:12:53.093Z,6.07
2017-12-21T03:15:20.579Z,5.90
2017-12-21T03:17:48.033Z,5.70
2017-12-21T03:20:15.624Z,5.80
2017-12-21T03:22:43.099Z,6.30
2017-12-21T03:25:10.556Z,5.60
2017-12-21T03:27:38.079Z,5.53
2017-12-21T03:30:05.522Z,5.70
2017-12-21T03:32:33.016Z,5.97
2017-12-21T03:35:00.485Z,5.50
2017-12-21T03:37:27.937Z,5.23
2017-12-21T03:39:55.401Z,5.40
2017-12-21T03:42:22.915Z,6.03
2017-12-21T03:44:50.627Z,6.23
2017-12-21T03:47:18.377Z,6.00
2017-12-21T03:49:45.843Z,6.97
2017-12-21T03:52:13.510Z,5.17
2017-12-21T03:54:41.019Z,6.03
2017-12-21T03:57:08.563Z,6.60
2017-12-21T03:59:36.025Z,5.97
2017-12-21T04:02:03.494Z,6.63
2017-12-21T04:04:33.900Z,5.37
2017-12-21T04:07:01.351Z,6.40
2017-12-21T04:09:28.836Z,6.13
2017-12-21T04:11:56.315Z,6.60
2017-12-21T04:14:23.764Z,6.50
2017-12-21T04:16:51.267Z,6.50
2017-12-21T04:19:18.744Z,6.77
2017-12-21T04:21:46.208Z,6.53
2017-12-21T04:24:13.672Z,6.30
2017-12-21T04:26:41.124Z,7.60
2017-12-21T04:29:08.580Z,7.40
2017-12-21T04:31:36.040Z,7.43
2017-12-21T04:34:03.491Z,8.10
2017-12-21T04:36:31.442Z,7.83
2017-12-21T04:38:58.902Z,8.97
2017-12-21T04:41:26.376Z,9.60
2017-12-21T04:43:53.835Z,10.27
2017-12-21T04:46:21.332Z,10.00
2017-12-21T04:48:48.806Z,11.23
2017-12-21T04:51:16.331Z,10.97
2017-12-21T04:53:43.823Z,12.20
2017-12-21T04:56:11.316Z,13.60
2017-12-21T04:58:38.780Z,13.70
2017-12-21T05:01:06.325Z,14.40
2017-12-21T05:03:33.798Z,14.43
2017-12-21T05:06:01.271Z,15.30
2017-12-21T05:08:28.756Z,13.83
2017-12-21T05:10:56.234Z,13.60
2017-12-21T05:13:23.724Z,14.80
2017-12-21T05:15:51.208Z,15.97
2017-12-21T05:18:18.747Z,13.93
2017-12-21T05:20:46.237Z,15.40
2017-12-21T05:23:13.692Z,15.17
2017-12-21T05:25:41.148Z,15.70
2017-12-21T05:28:08.659Z,15.33
2017-12-21T05:30:36.133Z,17.37
2017-12-21T05:33:03.607Z,15.87
2017-12-21T05:35:31.070Z,16.97
2017-12-21T05:37:58.553Z,17.53
2017-12-21T05:40:26.072Z,17.37
2017-12-21T05:42:53.606Z,17.70
2017-12-21T05:45:24.915Z,16.50
2017-12-21T05:47:52.408Z,17.37
2017-12-21T05:50:20.016Z,18.90
2017-12-21T05:52:47.542Z,17.47
2017-12-21T05:55:15.046Z,18.40
2017-12-21T05:57:42.543Z,17.20
2017-12-21T06:00:10.248Z,18.93
2017-12-21T06:02:37.699Z,20.37
2017-12-21T06:05:05.211Z,20.57
2017-12-21T06:07:32.685Z,22.17
2017-12-21T06:10:00.168Z,21.07
2017-12-21T06:12:28.856Z,20.83
2017-12-21T06:14:56.327Z,23.43
2017-12-21T06:17:23.833Z,21.37
2017-12-21T06:19:51.818Z,22.97
2017-12-21T06:22:19.311Z,20.90
2017-12-21T06:24:46.772Z,20.50
2017-12-21T06:27:14.361Z,20.53
2017-12-21T06:29:41.860Z,21.00
2017-12-21T06:32:11.905Z,21.80
2017-12-21T06:34:40.606Z,21.03
2017-12-21T06:37:08.098Z,21.80
2017-12-21T06:39:35.552Z,23.20
2017-12-21T06:42:03.342Z,23.70
2017-12-21T06:44:30.972Z,21.30
2017-12-21T06:46:58.440Z,20.97
2017-12-21T06:49:25.942Z,20.73
2017-12-21T06:51:53.477Z,20.20
2017-12-21T06:54:21.071Z,21.63
2017-12-21T06:56:50.115Z,21.30
2017-12-21T06:59:17.940Z,21.53
2017-12-21T07:01:45.513Z,21.60
2017-12-21T07:04:13.211Z,22.50
2017-12-21T07:06:41.070Z,21.57
2017-12-21T07:09:11.781Z,21.40
2017-12-21T07:11:40.113Z,22.43
2017-12-21T07:14:07.654Z,23.20
2017-12-21T07:16:35.135Z,21.83
2017-12-21T07:19:02.608Z,22.73
2017-12-21T07:21:30.070Z,21.77
2017-12-21T07:23:57.592Z,22.20
2017-12-21T07:26:25.082Z,22.43
2017-12-21T07:28:52.640Z,20.13
2017-12-21T07:31:22.594Z,21.27
2017-12-21T07:33:50.155Z,21.20
2017-12-21T07:36:17.648Z,21.30
2017-12-21T07:38:45.165Z,20.83
2017-12-21T07:41:12.706Z,21.40
2017-12-21T07:43:40.316Z,21.23
2017-12-21T07:46:07.776Z,21.00
2017-12-21T07:48:35.271Z,21.23
2017-12-21T07:51:02.742Z,20.77
2017-12-21T07:53:30.308Z,20.50
2017-12-21T07:55:57.854Z,19.53
2017-12-21T07:58:25.310Z,19.03
2017-12-21T08:00:52.901Z,19.97
2017-12-21T08:03:22.706Z,18.70
2017-12-21T08:05:50.182Z,18.07
2017-12-21T08:08:17.652Z,18.17
2017-12-21T08:10:45.152Z,17.90
2017-12-21T08:13:12.617Z,17.63
2017-12-21T08:15:40.274Z,16.93
2017-12-21T08:18:08.815Z,15.70
2017-12-21T08:20:37.259Z,16.43
2017-12-21T08:23:04.733Z,16.47
2017-12-21T08:25:32.352Z,15.13
2017-12-21T08:28:00.897Z,14.30
2017-12-21T08:30:30.496Z,13.83
2017-12-21T08:32:59.248Z,14.50
2017-12-21T08:35:27.702Z,14.27
2017-12-21T08:37:56.960Z,13.30
2017-12-21T08:40:25.953Z,14.60
2017-12-21T08:42:53.472Z,14.70
2017-12-21T08:45:22.588Z,13.70
2017-12-21T08:47:50.227Z,12.10
2017-12-21T08:50:18.529Z,12.50
2017-12-21T08:52:46.950Z,13.67
2017-12-21T08:55:14.476Z,12.27
2017-12-21T08:57:42.211Z,12.27
2017-12-21T09:00:09.677Z,12.50
2017-12-21T09:02:37.160Z,12.30
2017-12-21T09:05:05.708Z,11.03
2017-12-21T09:07:33.834Z,10.57
2017-12-21T09:10:01.927Z,11.07
2017-12-21T09:12:29.558Z,11.10
2017-12-21T09:14:57.164Z,11.00
2017-12-21T09:17:24.683Z,9.33
2017-12-21T09:19:52.232Z,9.30
2017-12-21T09:22:19.734Z,8.90
2017-12-21T09:24:48.455Z,7.70
2017-12-21T09:27:17.468Z,7.30
2017-12-21T09:29:45.146Z,8.30
2017-12-21T09:32:12.625Z,6.70
2017-12-21T09:34:40.115Z,7.10
2017-12-21T09:37:07.587Z,5.63
2017-12-21T09:39:35.055Z,6.77
2017-12-21T09:42:05.482Z,5.73
2017-12-21T09:44:38.234Z,5.37
2017-12-21T09:47:07.123Z,4.80
2017-12-21T09:49:34.592Z,5.00
2017-12-21T09:52:02.272Z,4.93
2017-12-21T09:54:30.585Z,4.80
2017-12-21T09:56:58.035Z,4.63
2017-12-21T09:59:25.719Z,4.23
2017-12-21T10:01:53.326Z,4.43
2017-12-21T10:04:22.721Z,4.57
2017-12-21T10:06:51.243Z,4.90
2017-12-21T10:09:18.740Z,3.80
2017-12-21T10:11:46.918Z,4.03
2017-12-21T10:14:15.063Z,3.87
2017-12-21T10:16:42.528Z,3.70
2017-12-21T10:19:09.984Z,4.23
2017-12-21T10:21:37.445Z,3.80
2017-12-21T10:24:04.925Z,4.50
2017-12-21T10:26:32.908Z,3.40
2017-12-21T10:29:00.369Z,3.50
2017-12-21T10:31:27.934Z,3.73
2017-12-21T10:33:55.398Z,3.63
2017-12-21T10:36:22.943Z,3.23
2017-12-21T10:38:50.420Z,3.70
2017-12-21T10:41:17.876Z,4.40
2017-12-21T10:43:46.280Z,4.07
2017-12-21T10:46:13.835Z,3.40
2017-12-21T10:48:43.129Z,3.13
2017-12-21T10:51:10.580Z,3.07
2017-12-21T10:53:38.128Z,3.20
2017-12-21T10:56:05.604Z,3.03
2017-12-21T10:58:33.279Z,3.50
2017-12-21T11:01:00.732Z,3.20
2017-12-21T11:03:28.238Z,3.20
2017-12-21T11:05:55.995Z,3.10
2017-12-21T11:08:23.590Z,3.20
2017-12-21T11:10:51.060Z,3.03
2017-12-21T11:13:18.532Z,2.87
2017-12-21T11:15:46.081Z,2.60
2017-12-21T11:18:13.548Z,2.87
2017-12-21T11:20:41.019Z,3.30
2017-12-21T11:23:08.473Z,2.63
2017-12-21T11:25:35.930Z,2.50
2017-12-21T11:28:03.437Z,2.80
2017-12-21T11:30:30.915Z,2.23
2017-12-21T11:32:58.386Z,2.30
2017-12-21T11:35:25.844Z,2.43
2017-12-21T11:37:53.304Z,1.83
2017-12-21T11:40:20.855Z,2.30
2017-12-21T11:42:48.328Z,2.30
2017-12-21T11:45:15.861Z,2.40
2017-12-21T11:47:43.296Z,1.77
2017-12-21T11:50:10.803Z,1.70
2017-12-21T11:52:38.327Z,1.60
2017-12-21T11:55:05.807Z,1.80
2017-12-21T11:57:33.309Z,1.73
2017-12-21T12:00:00.732Z,1.37
2017-12-21T12:02:28.310Z,1.80
2017-12-21T12:04:55.815Z,1.70
2017-12-21T12:07:23.345Z,1.60
2017-12-21T12:09:50.802Z,1.80
2017-12-21T12:12:18.265Z,1.70
2017-12-21T12:14:45.743Z,1.40
2017-12-21T12:17:13.213Z,1.50
2017-12-21T12:19:40.663Z,1.50
2017-12-21T12:22:08.197Z,1.53
2017-12-21T12:24:35.649Z,1.60
2017-12-21T12:27:03.118Z,1.40
2017-12-21T12:29:30.575Z,1.53
2017-12-21T12:31:58.024Z,1.27
2017-12-21T12:34:25.508Z,2.23
2017-12-21T12:36:52.981Z,1.87
2017-12-21T12:39:20.448Z,1.37
2017-12-21T12:41:47.915Z,1.57
2017-12-21T12:44:15.422Z,1.27
2017-12-21T12:46:42.951Z,1.07
2017-12-21T12:49:10.396Z,1.90
2017-12-21T12:51:37.845Z,1.20
2017-12-21T12:54:05.369Z,1.10
2017-12-21T12:56:32.821Z,1.40
2017-12-21T12:59:00.277Z,1.60
2017-12-21T13:01:28.253Z,1.40
2017-12-21T13:03:55.775Z,1.33
2017-12-21T13:06:23.325Z,1.60
2017-12-21T13:08:50.809Z,1.30
2017-12-21T13:11:18.326Z,1.10
2017-12-21T13:13:45.872Z,1.70
2017-12-21T13:16:13.349Z,1.33
2017-12-21T13:18:40.836Z,1.47
2017-12-21T13:21:08.309Z,1.60
2017-12-21T13:23:35.772Z,1.60
2017-12-21T13:26:03.216Z,1.90
2017-12-21T13:28:30.748Z,1.33
2017-12-21T13:30:58.317Z,1.53
2017-12-21T13:33:25.779Z,2.00
2017-12-21T13:35:55.980Z,2.10
2017-12-21T13:38:23.482Z,2.70
2017-12-21T13:40:50.952Z,1.80
2017-12-21T13:43:18.411Z,1.70
2017-12-21T13:45:45.887Z,1.63
2017-12-21T13:48:13.346Z,1.77
2017-12-21T13:50:40.796Z,1.77
2017-12-21T13:53:08.239Z,2.00
2017-12-21T13:55:35.729Z,1.83
2017-12-21T13:58:03.197Z,2.30
2017-12-21T14:00:30.668Z,1.80
2017-12-21T14:02:58.163Z,2.37
2017-12-21T14:05:25.615Z,1.90
2017-12-21T14:07:53.083Z,1.87
2017-12-21T14:10:21.326Z,2.23
2017-12-21T14:12:48.992Z,2.83
2017-12-21T14:15:16.492Z,1.83
2017-12-21T14:17:43.960Z,2.93
2017-12-21T14:20:11.424Z,2.40
2017-12-21T14:22:38.892Z,2.43
2017-12-21T14:25:06.369Z,2.57
2017-12-21T14:27:33.842Z,2.30
2017-12-21T14:30:01.348Z,2.73
2017-12-21T14:32:28.929Z,3.00
2017-12-21T14:34:56.398Z,2.80
2017-12-21T14:37:23.955Z,2.53
2017-12-21T14:39:51.460Z,2.53
2017-12-21T14:42:18.879Z,2.50
2017-12-21T14:44:46.392Z,2.70
2017-12-21T14:47:13.860Z,3.00
2017-12-21T14:49:42.253Z,2.90
2017-12-21T14:52:09.783Z,2.70
2017-12-21T14:54:37.252Z,3.20
2017-12-21T14:57:04.738Z,3.77
2017-12-21T14:59:32.236Z,3.40
2017-12-21T15:01:59.724Z,3.33
2017-12-21T15:04:27.182Z,3.50
2017-12-21T15:06:54.652Z,4.43
2017-12-21T15:09:22.103Z,4.33
2017-12-21T15:11:49.576Z,4.07
2017-12-21T15:14:18.787Z,3.93
2017-12-21T15:16:46.263Z,3.80
2017-12-21T15:19:13.795Z,3.77
2017-12-21T15:21:41.300Z,4.27
2017-12-21T15:24:08.772Z,4.10
2017-12-21T15:26:36.246Z,4.00
2017-12-21T15:29:03.713Z,4.00
2017-12-21T15:31:31.223Z,4.57
2017-12-21T15:33:58.859Z,4.87
2017-12-21T15:36:32.133Z,4.50
2017-12-21T15:38:59.877Z,4.30
2017-12-21T15:41:28.835Z,5.20
2017-12-21T15:43:56.935Z,4.67
2017-12-21T15:46:24.526Z,4.67
2017-12-21T15:48:52.532Z,4.77
2017-12-21T15:51:20.166Z,4.90
2017-12-21T15:53:47.681Z,4.37
2017-12-21T15:56:15.344Z,4.47
2017-12-21T15:58:42.827Z,5.30
2017-12-21T16:01:10.334Z,4.70
2017-12-21T16:03:40.868Z,4.33
2017-12-21T16:06:08.483Z,4.50
2017-12-21T16:08:36.029Z,4.20
2017-12-21T16:11:03.762Z,4.40
2017-12-21T16:13:31.435Z,4.70
2017-12-21T16:15:59.746Z,4.07
2017-12-21T16:18:29.116Z,3.37
2017-12-21T16:20:56.599Z,3.50
2017-12-21T16:23:24.230Z,3.60
2017-12-21T16:25:51.717Z,3.30
2017-12-21T16:28:20.542Z,4.00
2017-12-21T16:30:48.643Z,3.43
2017-12-21T16:33:17.402Z,3.40
2017-12-21T16:35:44.880Z,4.03
2017-12-21T16:38:12.511Z,3.80
2017-12-21T16:40:40.072Z,3.30
2017-12-21T16:43:07.591Z,3.70
2017-12-21T16:45:35.085Z,3.93
2017-12-21T16:48:02.692Z,3.13
2017-12-21T16:50:30.205Z,3.90
2017-12-21T16:53:03.930Z,3.63
2017-12-21T16:55:32.606Z,3.90
2017-12-21T16:58:00.218Z,3.70
2017-12-21T17:00:33.517Z,4.00
2017-12-21T17:03:05.733Z,4.30
2017-12-21T17:05:34.386Z,3.90
2017-12-21T17:08:02.947Z,4.00
2017-12-21T17:10:31.613Z,3.93
2017-12-21T17:13:00.362Z,3.87
2017-12-21T17:15:27.969Z,3.97
2017-12-21T17:17:55.608Z,3.50
2017-12-21T17:20:23.140Z,4.00
2017-12-21T17:22:50.745Z,4.33
2017-12-21T17:25:18.212Z,4.20
2017-12-21T17:27:45.826Z,3.80
2017-12-21T17:30:15.248Z,3.77
2017-12-21T17:32:43.766Z,3.80
2017-12-21T17:35:12.376Z,3.90
2017-12-21T17:37:40.213Z,4.17
2017-12-21T17:40:08.386Z,3.83
2017-12-21T17:42:35.860Z,3.63
2017-12-21T17:45:05.742Z,4.50
2017-12-21T17:47:35.692Z,4.30
2017-12-21T17:50:04.967Z,3.73
2017-12-21T17:52:32.708Z,4.20
2017-12-21T17:55:00.214Z,3.90
2017-12-21T17:57:27.778Z,3.93
2017-12-21T17:59:56.425Z,4.10
2017-12-21T18:02:28.191Z,3.90
2017-12-21T18:04:57.807Z,5.13
2017-12-21T18:07:25.472Z,4.10
2017-12-21T18:09:56.117Z,3.50
2017-12-21T18:12:27.528Z,4.20
2017-12-21T18:14:56.133Z,3.50
2017-12-21T18:17:25.282Z,3.53
2017-12-21T18:19:52.912Z,3.90
2017-12-21T18:22:21.696Z,3.13
2017-12-21T18:24:51.080Z,3.30
2017-12-21T18:27:19.931Z,3.50
2017-12-21T18:30:00.993Z,3.40
2017-12-21T18:32:28.489Z,3.57
2017-12-21T18:34:56.032Z,3.47
2017-12-21T18:37:23.643Z,3.70
2017-12-21T18:39:51.166Z,4.10
2017-12-21T18:42:18.773Z,4.07
2017-12-21T18:44:46.462Z,4.10
2017-12-21T18:47:21.208Z,3.80
2017-12-21T18:49:50.889Z,3.77
2017-12-21T18:52:18.663Z,4.17
2017-12-21T18:54:46.275Z,4.27
2017-12-21T18:57:14.085Z,4.40
2017-12-21T18:59:41.739Z,4.40
2017-12-21T19:02:20.631Z,4.30
2017-12-21T19:04:48.414Z,4.63
2017-12-21T19:07:16.723Z,4.60
2017-12-21T19:09:44.280Z,4.30
2017-12-21T19:12:11.930Z,4.77
2017-12-21T19:14:39.569Z,4.20
2017-12-21T19:17:07.431Z,4.70
2017-12-21T19:19:35.213Z,5.67
2017-12-21T19:22:03.815Z,4.90
2017-12-21T19:24:31.535Z,4.30
2017-12-21T19:26:59.121Z,4.53
2017-12-21T19:29:27.019Z,4.43
2017-12-21T19:31:58.881Z,4.47
2017-12-21T19:34:26.620Z,4.90
2017-12-21T19:36:54.394Z,5.17
2017-12-21T19:39:22.270Z,4.60
2017-12-21T19:41:50.276Z,4.97
2017-12-21T19:44:18.039Z,4.70
2017-12-21T19:46:45.773Z,4.27
2017-12-21T19:49:13.520Z,3.70
2017-12-21T19:56:47.325Z,4.57
2017-12-21T19:59:19.729Z,4.10
2017-12-21T20:01:48.576Z,5.00
2017-12-21T20:04:17.949Z,5.03
2017-12-21T20:06:45.865Z,4.73
2017-12-21T20:09:14.360Z,4.63
2017-12-21T20:11:42.318Z,4.60
2017-12-21T20:14:10.344Z,4.60
2017-12-21T20:16:38.971Z,4.63
2017-12-21T20:19:07.506Z,4.60
2017-12-21T20:21:35.405Z,4.10
2017-12-21T20:24:03.273Z,5.13
2017-12-21T20:26:31.597Z,5.77
2017-12-21T20:28:59.637Z,5.23
2017-12-21T20:31:27.535Z,5.70
2017-12-21T20:33:55.864Z,4.97
2017-12-21T20:36:24.193Z,5.33
2017-12-21T20:38:56.437Z,5.80
2017-12-21T20:44:05.508Z,5.97
2017-12-21T21:02:29.541Z,6.33
2017-12-21T21:04:57.422Z,6.23
2017-12-21T21:07:25.606Z,5.93
2017-12-21T21:09:53.433Z,6.23
2017-12-21T21:12:24.048Z,6.00
2017-12-21T21:14:53.218Z,6.30
2017-12-21T21:17:22.010Z,6.10
2017-12-21T21:19:49.823Z,5.90
2017-12-21T21:22:17.651Z,7.33
2017-12-21T21:24:46.643Z,6.87
2017-12-21T21:27:16.421Z,6.73
2017-12-21T21:29:44.450Z,6.23
2017-12-21T21:32:13.206Z,6.70
2017-12-21T21:34:42.259Z,6.43
2017-12-21T21:37:10.191Z,6.30
2017-12-21T21:39:37.770Z,7.10
2017-12-21T21:42:06.008Z,6.90
2017-12-21T21:44:36.022Z,7.07
2017-12-21T21:47:03.539Z,7.40
2017-12-21T21:49:31.696Z,6.90
2017-12-21T21:51:59.270Z,7.40
2017-12-21T21:54:27.090Z,7.40
2017-12-21T21:56:54.646Z,7.40
2017-12-21T21:59:22.149Z,7.23
2017-12-21T22:01:49.648Z,7.93
2017-12-21T22:04:17.440Z,8.23
2017-12-21T22:06:45.188Z,6.90
2017-12-21T22:09:12.705Z,8.07
2017-12-21T22:11:40.413Z,8.00
2017-12-21T22:14:07.929Z,7.10
2017-12-21T22:16:36.693Z,7.63
2017-12-21T22:19:04.235Z,7.63
2017-12-21T22:21:32.349Z,7.57
2017-12-21T22:24:00.094Z,7.60
2017-12-21T22:26:27.633Z,6.97
2017-12-21T22:28:55.090Z,7.20
2017-12-21T22:31:22.583Z,7.50
2017-12-21T22:33:50.123Z,7.20
2017-12-21T22:36:17.576Z,7.70
2017-12-21T22:38:45.031Z,7.03
2017-12-21T22:41:12.517Z,7.10
2017-12-21T22:43:39.973Z,6.97
2017-12-21T22:46:07.532Z,6.90
2017-12-21T22:48:35.000Z,7.70
2017-12-21T22:51:02.483Z,7.33
2017-12-21T22:53:29.988Z,6.90
2017-12-21T22:55:57.452Z,8.50
2017-12-21T22:58:26.059Z,7.67
2017-12-21T23:00:53.549Z,7.90
2017-12-21T23:03:21.035Z,7.43
2017-12-21T23:05:48.504Z,7.50
2017-12-21T23:08:16.092Z,7.50
2017-12-21T23:10:43.538Z,6.93
2017-12-21T23:13:10.993Z,7.10
2017-12-21T23:15:38.495Z,6.90
2017-12-21T23:18:05.957Z,7.03
2017-12-21T23:20:33.438Z,7.07
2017-12-21T23:23:00.919Z,7.30
2017-12-21T23:25:28.392Z,6.87
2017-12-21T23:27:55.861Z,6.90
2017-12-21T23:30:23.614Z,6.50
2017-12-21T23:32:51.112Z,6.00
2017-12-21T23:35:18.565Z,6.47
2017-12-21T23:37:46.057Z,7.40
2017-12-21T23:40:13.808Z,5.50
2017-12-21T23:42:41.793Z,6.37
2017-12-21T23:45:09.269Z,6.73
2017-12-21T23:47:36.747Z,5.63
2017-12-21T23:50:04.256Z,5.77
2017-12-21T23:52:32.233Z,6.53
2017-12-21T23:54:59.691Z,5.17
2017-12-21T23:57:27.148Z,5.20
2017-12-21T23:59:54.612Z,6.20
